sensor_id;sensor_type;location;lat;lon;timestamp;P1;durP1;ratioP1;P2;durP2;ratioP2
14167;SDS011;7163;50.626;12.922;2023-07-29T00:00:42;2.13;;;1.93;;
14167;SDS011;7163;50.626;12.922;2023-07-29T00:05:52;2.70;;;1.93;;
14167;SDS011;7163;50.626;12.922;2023-07-29T00:10:53;1.83;;;1.73;;
14167;SDS011;7163;50.626;12.922;2023-07-29T00:15:54;1.70;;;1.60;;
14167;SDS011;7163;50.626;12.922;2023-07-29T00:20:55;1.80;;;1.70;;
14167;SDS011;7163;50.626;12.922;2023-07-29T00:25:56;1.80;;;1.70;;
14167;SDS011;7163;50.626;12.922;2023-07-29T00:30:56;2.73;;;2.40;;
14167;SDS011;7163;50.626;12.922;2023-07-29T00:35:57;1.80;;;1.70;;
14167;SDS011;7163;50.626;12.922;2023-07-29T00:41:02;2.00;;;1.80;;
14167;SDS011;7163;50.626;12.922;2023-07-29T01:01:45;2.50;;;2.30;;
14167;SDS011;7163;50.626;12.922;2023-07-29T01:06:50;2.30;;;2.10;;
14167;SDS011;7163;50.626;12.922;2023-07-29T01:17:33;2.23;;;2.10;;
14167;SDS011;7163;50.626;12.922;2023-07-29T01:22:35;3.10;;;2.03;;
14167;SDS011;7163;50.626;12.922;2023-07-29T01:27:36;3.00;;;2.20;;
14167;SDS011;7163;50.626;12.922;2023-07-29T01:32:50;3.70;;;2.83;;
14167;SDS011;7163;50.626;12.922;2023-07-29T01:37:55;2.77;;;2.57;;
14167;SDS011;7163;50.626;12.922;2023-07-29T01:43:03;3.20;;;2.70;;
14167;SDS011;7163;50.626;12.922;2023-07-29T01:48:07;2.77;;;2.57;;
14167;SDS011;7163;50.626;12.922;2023-07-29T01:53:07;3.13;;;2.70;;
14167;SDS011;7163;50.626;12.922;2023-07-29T01:58:08;2.73;;;2.40;;
14167;SDS011;7163;50.626;12.922;2023-07-29T02:03:08;3.13;;;2.30;;
14167;SDS011;7163;50.626;12.922;2023-07-29T02:08:09;2.47;;;2.10;;
14167;SDS011;7163;50.626;12.922;2023-07-29T02:13:09;2.20;;;2.00;;
14167;SDS011;7163;50.626;12.922;2023-07-29T02:18:10;1.83;;;1.73;;
14167;SDS011;7163;50.626;12.922;2023-07-29T02:23:10;2.93;;;1.70;;
14167;SDS011;7163;50.626;12.922;2023-07-29T02:28:11;2.00;;;1.87;;
14167;SDS011;7163;50.626;12.922;2023-07-29T02:33:11;1.70;;;1.60;;
14167;SDS011;7163;50.626;12.922;2023-07-29T02:38:12;4.30;;;1.67;;
14167;SDS011;7163;50.626;12.922;2023-07-29T02:43:12;1.80;;;1.57;;
14167;SDS011;7163;50.626;12.922;2023-07-29T02:48:13;1.73;;;1.63;;
14167;SDS011;7163;50.626;12.922;2023-07-29T02:53:14;1.50;;;1.40;;
14167;SDS011;7163;50.626;12.922;2023-07-29T02:58:15;1.90;;;1.80;;
14167;SDS011;7163;50.626;12.922;2023-07-29T03:03:15;1.73;;;1.63;;
14167;SDS011;7163;50.626;12.922;2023-07-29T03:08:18;1.70;;;1.60;;
14167;SDS011;7163;50.626;12.922;2023-07-29T03:13:19;1.80;;;1.70;;
14167;SDS011;7163;50.626;12.922;2023-07-29T03:18:19;1.80;;;1.70;;
14167;SDS011;7163;50.626;12.922;2023-07-29T03:23:20;1.80;;;1.70;;
14167;SDS011;7163;50.626;12.922;2023-07-29T03:28:20;2.30;;;2.08;;
14167;SDS011;7163;50.626;12.922;2023-07-29T03:33:21;2.20;;;2.00;;
14167;SDS011;7163;50.626;12.922;2023-07-29T03:38:22;2.45;;;2.00;;
14167;SDS011;7163;50.626;12.922;2023-07-29T03:43:23;1.80;;;1.70;;
14167;SDS011;7163;50.626;12.922;2023-07-29T03:48:23;3.05;;;2.28;;
14167;SDS011;7163;50.626;12.922;2023-07-29T03:53:24;1.95;;;1.85;;
14167;SDS011;7163;50.626;12.922;2023-07-29T03:58:25;3.58;;;2.10;;
14167;SDS011;7163;50.626;12.922;2023-07-29T04:03:25;2.27;;;1.90;;
14167;SDS011;7163;50.626;12.922;2023-07-29T04:08:26;2.05;;;1.95;;
14167;SDS011;7163;50.626;12.922;2023-07-29T04:13:27;2.33;;;1.90;;
14167;SDS011;7163;50.626;12.922;2023-07-29T04:18:27;1.87;;;1.77;;
14167;SDS011;7163;50.626;12.922;2023-07-29T04:23:28;2.20;;;2.00;;
14167;SDS011;7163;50.626;12.922;2023-07-29T04:28:28;3.60;;;2.00;;
14167;SDS011;7163;50.626;12.922;2023-07-29T04:33:29;2.92;;;2.13;;
14167;SDS011;7163;50.626;12.922;2023-07-29T04:38:31;2.38;;;2.00;;
14167;SDS011;7163;50.626;12.922;2023-07-29T04:43:35;3.45;;;1.90;;
14167;SDS011;7163;50.626;12.922;2023-07-29T04:48:35;2.28;;;2.10;;
14167;SDS011;7163;50.626;12.922;2023-07-29T04:53:36;1.90;;;1.80;;
14167;SDS011;7163;50.626;12.922;2023-07-29T04:58:37;3.83;;;1.95;;
14167;SDS011;7163;50.626;12.922;2023-07-29T05:03:38;1.83;;;1.73;;
14167;SDS011;7163;50.626;12.922;2023-07-29T05:08:39;2.10;;;1.90;;
14167;SDS011;7163;50.626;12.922;2023-07-29T05:13:40;3.33;;;1.60;;
14167;SDS011;7163;50.626;12.922;2023-07-29T05:18:40;2.33;;;2.03;;
14167;SDS011;7163;50.626;12.922;2023-07-29T05:23:41;1.80;;;1.70;;
14167;SDS011;7163;50.626;12.922;2023-07-29T05:28:42;2.78;;;1.80;;
14167;SDS011;7163;50.626;12.922;2023-07-29T05:33:42;2.33;;;1.60;;
14167;SDS011;7163;50.626;12.922;2023-07-29T05:38:42;2.42;;;1.80;;
14167;SDS011;7163;50.626;12.922;2023-07-29T05:43:43;2.92;;;1.90;;
14167;SDS011;7163;50.626;12.922;2023-07-29T05:48:44;3.78;;;1.95;;
14167;SDS011;7163;50.626;12.922;2023-07-29T05:53:44;3.50;;;1.73;;
14167;SDS011;7163;50.626;12.922;2023-07-29T05:58:45;4.18;;;2.25;;
14167;SDS011;7163;50.626;12.922;2023-07-29T06:03:45;3.35;;;1.80;;
14167;SDS011;7163;50.626;12.922;2023-07-29T06:08:45;1.90;;;1.80;;
14167;SDS011;7163;50.626;12.922;2023-07-29T06:13:47;1.90;;;1.80;;
14167;SDS011;7163;50.626;12.922;2023-07-29T06:18:48;1.90;;;1.70;;
14167;SDS011;7163;50.626;12.922;2023-07-29T06:23:48;2.28;;;1.48;;
14167;SDS011;7163;50.626;12.922;2023-07-29T06:28:48;2.08;;;1.70;;
14167;SDS011;7163;50.626;12.922;2023-07-29T06:33:49;1.42;;;1.33;;
14167;SDS011;7163;50.626;12.922;2023-07-29T06:38:49;2.45;;;1.70;;
14167;SDS011;7163;50.626;12.922;2023-07-29T06:43:50;1.98;;;1.73;;
14167;SDS011;7163;50.626;12.922;2023-07-29T06:48:51;2.08;;;1.30;;
14167;SDS011;7163;50.626;12.922;2023-07-29T06:53:51;1.55;;;1.45;;
14167;SDS011;7163;50.626;12.922;2023-07-29T06:58:52;1.45;;;1.20;;
14167;SDS011;7163;50.626;12.922;2023-07-29T07:03:53;1.50;;;1.40;;
14167;SDS011;7163;50.626;12.922;2023-07-29T07:08:54;1.35;;;1.25;;
14167;SDS011;7163;50.626;12.922;2023-07-29T07:13:54;1.50;;;1.40;;
14167;SDS011;7163;50.626;12.922;2023-07-29T07:18:55;2.08;;;1.38;;
14167;SDS011;7163;50.626;12.922;2023-07-29T07:23:56;3.38;;;1.38;;
14167;SDS011;7163;50.626;12.922;2023-07-29T07:28:57;1.85;;;1.30;;
14167;SDS011;7163;50.626;12.922;2023-07-29T07:33:58;1.50;;;1.30;;
14167;SDS011;7163;50.626;12.922;2023-07-29T07:38:58;1.70;;;1.30;;
14167;SDS011;7163;50.626;12.922;2023-07-29T07:43:58;1.20;;;1.20;;
14167;SDS011;7163;50.626;12.922;2023-07-29T07:48:59;1.70;;;1.60;;
14167;SDS011;7163;50.626;12.922;2023-07-29T07:53:59;4.05;;;2.38;;
14167;SDS011;7163;50.626;12.922;2023-07-29T07:59:01;1.60;;;1.50;;
14167;SDS011;7163;50.626;12.922;2023-07-29T08:04:02;3.40;;;1.77;;
14167;SDS011;7163;50.626;12.922;2023-07-29T08:09:03;2.20;;;1.85;;
14167;SDS011;7163;50.626;12.922;2023-07-29T08:14:03;1.35;;;1.30;;
14167;SDS011;7163;50.626;12.922;2023-07-29T08:19:04;2.00;;;1.80;;
14167;SDS011;7163;50.626;12.922;2023-07-29T08:24:04;1.35;;;1.25;;
14167;SDS011;7163;50.626;12.922;2023-07-29T08:29:04;1.98;;;1.60;;
14167;SDS011;7163;50.626;12.922;2023-07-29T08:34:05;2.38;;;1.10;;
14167;SDS011;7163;50.626;12.922;2023-07-29T08:39:05;2.00;;;1.50;;
14167;SDS011;7163;50.626;12.922;2023-07-29T08:44:12;1.00;;;1.00;;
14167;SDS011;7163;50.626;12.922;2023-07-29T08:49:18;2.13;;;1.73;;
14167;SDS011;7163;50.626;12.922;2023-07-29T08:54:19;1.40;;;1.30;;
14167;SDS011;7163;50.626;12.922;2023-07-29T08:59:19;2.33;;;1.50;;
14167;SDS011;7163;50.626;12.922;2023-07-29T09:04:20;2.03;;;1.35;;
14167;SDS011;7163;50.626;12.922;2023-07-29T09:09:21;2.15;;;1.77;;
14167;SDS011;7163;50.626;12.922;2023-07-29T09:14:23;1.70;;;1.50;;
14167;SDS011;7163;50.626;12.922;2023-07-29T09:19:27;3.72;;;1.38;;
14167;SDS011;7163;50.626;12.922;2023-07-29T09:24:27;1.20;;;1.10;;
14167;SDS011;7163;50.626;12.922;2023-07-29T09:29:29;1.35;;;1.25;;
14167;SDS011;7163;50.626;12.922;2023-07-29T09:34:31;1.50;;;1.25;;
14167;SDS011;7163;50.626;12.922;2023-07-29T09:39:32;1.40;;;1.30;;
14167;SDS011;7163;50.626;12.922;2023-07-29T09:44:35;2.25;;;1.40;;
14167;SDS011;7163;50.626;12.922;2023-07-29T09:49:36;3.83;;;1.50;;
14167;SDS011;7163;50.626;12.922;2023-07-29T09:54:36;1.17;;;1.08;;
14167;SDS011;7163;50.626;12.922;2023-07-29T09:59:37;1.20;;;1.20;;
14167;SDS011;7163;50.626;12.922;2023-07-29T10:04:37;1.30;;;1.20;;
14167;SDS011;7163;50.626;12.922;2023-07-29T10:09:39;1.83;;;1.35;;
14167;SDS011;7163;50.626;12.922;2023-07-29T10:14:40;1.17;;;1.13;;
14167;SDS011;7163;50.626;12.922;2023-07-29T10:19:41;2.05;;;1.10;;
14167;SDS011;7163;50.626;12.922;2023-07-29T10:24:42;3.05;;;1.42;;
14167;SDS011;7163;50.626;12.922;2023-07-29T10:29:44;1.20;;;1.20;;
14167;SDS011;7163;50.626;12.922;2023-07-29T10:34:45;1.38;;;1.20;;
14167;SDS011;7163;50.626;12.922;2023-07-29T10:39:51;1.33;;;1.10;;
14167;SDS011;7163;50.626;12.922;2023-07-29T10:44:55;1.58;;;1.10;;
14167;SDS011;7163;50.626;12.922;2023-07-29T10:49:57;1.00;;;1.00;;
14167;SDS011;7163;50.626;12.922;2023-07-29T10:54:58;1.30;;;1.10;;
14167;SDS011;7163;50.626;12.922;2023-07-29T10:59:59;1.10;;;1.10;;
14167;SDS011;7163;50.626;12.922;2023-07-29T11:05:04;4.40;;;1.10;;
14167;SDS011;7163;50.626;12.922;2023-07-29T11:10:05;0.90;;;0.90;;
14167;SDS011;7163;50.626;12.922;2023-07-29T11:20:10;1.30;;;1.20;;
14167;SDS011;7163;50.626;12.922;2023-07-29T11:25:12;1.00;;;1.00;;
14167;SDS011;7163;50.626;12.922;2023-07-29T11:30:14;1.90;;;1.20;;
14167;SDS011;7163;50.626;12.922;2023-07-29T11:35:16;1.05;;;1.05;;
14167;SDS011;7163;50.626;12.922;2023-07-29T11:40:18;0.98;;;0.88;;
14167;SDS011;7163;50.626;12.922;2023-07-29T11:45:21;1.45;;;1.20;;
14167;SDS011;7163;50.626;12.922;2023-07-29T11:50:22;2.15;;;1.15;;
14167;SDS011;7163;50.626;12.922;2023-07-29T11:55:22;1.52;;;1.20;;
14167;SDS011;7163;50.626;12.922;2023-07-29T12:00:23;1.65;;;1.35;;
14167;SDS011;7163;50.626;12.922;2023-07-29T12:05:26;1.90;;;1.63;;
14167;SDS011;7163;50.626;12.922;2023-07-29T12:10:26;2.50;;;1.80;;
14167;SDS011;7163;50.626;12.922;2023-07-29T12:15:27;9.13;;;2.35;;
14167;SDS011;7163;50.626;12.922;2023-07-29T12:20:29;3.22;;;1.80;;
14167;SDS011;7163;50.626;12.922;2023-07-29T12:25:30;2.83;;;2.00;;
14167;SDS011;7163;50.626;12.922;2023-07-29T12:30:30;3.40;;;2.45;;
14167;SDS011;7163;50.626;12.922;2023-07-29T12:35:37;4.88;;;2.03;;
14167;SDS011;7163;50.626;12.922;2023-07-29T12:40:38;2.38;;;1.63;;
14167;SDS011;7163;50.626;12.922;2023-07-29T12:45:40;2.00;;;1.80;;
14167;SDS011;7163;50.626;12.922;2023-07-29T12:50:41;2.00;;;1.67;;
14167;SDS011;7163;50.626;12.922;2023-07-29T12:55:41;3.17;;;1.50;;
14167;SDS011;7163;50.626;12.922;2023-07-29T13:00:42;2.97;;;1.38;;
14167;SDS011;7163;50.626;12.922;2023-07-29T13:05:42;3.83;;;1.87;;
14167;SDS011;7163;50.626;12.922;2023-07-29T13:10:42;1.73;;;1.63;;
14167;SDS011;7163;50.626;12.922;2023-07-29T13:15:43;2.20;;;1.42;;
14167;SDS011;7163;50.626;12.922;2023-07-29T13:20:43;3.75;;;1.60;;
14167;SDS011;7163;50.626;12.922;2023-07-29T13:25:44;1.92;;;1.70;;
14167;SDS011;7163;50.626;12.922;2023-07-29T13:30:44;1.77;;;1.45;;
14167;SDS011;7163;50.626;12.922;2023-07-29T13:35:45;1.42;;;1.33;;
14167;SDS011;7163;50.626;12.922;2023-07-29T13:40:45;2.03;;;1.45;;
14167;SDS011;7163;50.626;12.922;2023-07-29T13:45:47;1.65;;;1.50;;
14167;SDS011;7163;50.626;12.922;2023-07-29T13:50:50;1.30;;;1.20;;
14167;SDS011;7163;50.626;12.922;2023-07-29T13:55:51;1.30;;;1.20;;
14167;SDS011;7163;50.626;12.922;2023-07-29T14:00:51;1.43;;;1.33;;
14167;SDS011;7163;50.626;12.922;2023-07-29T14:05:52;2.17;;;1.48;;
14167;SDS011;7163;50.626;12.922;2023-07-29T14:10:52;3.03;;;1.60;;
14167;SDS011;7163;50.626;12.922;2023-07-29T14:15:53;1.40;;;1.30;;
14167;SDS011;7163;50.626;12.922;2023-07-29T14:20:53;2.65;;;1.67;;
14167;SDS011;7163;50.626;12.922;2023-07-29T14:25:54;1.48;;;1.30;;
14167;SDS011;7163;50.626;12.922;2023-07-29T14:30:55;2.35;;;1.38;;
14167;SDS011;7163;50.626;12.922;2023-07-29T14:35:55;1.10;;;1.10;;
14167;SDS011;7163;50.626;12.922;2023-07-29T14:40:55;1.98;;;1.35;;
14167;SDS011;7163;50.626;12.922;2023-07-29T14:45:56;1.30;;;1.20;;
14167;SDS011;7163;50.626;12.922;2023-07-29T14:50:57;1.52;;;1.42;;
14167;SDS011;7163;50.626;12.922;2023-07-29T14:55:57;1.30;;;1.13;;
14167;SDS011;7163;50.626;12.922;2023-07-29T15:00:57;1.90;;;1.60;;
14167;SDS011;7163;50.626;12.922;2023-07-29T15:05:58;2.60;;;1.60;;
14167;SDS011;7163;50.626;12.922;2023-07-29T15:11:01;2.65;;;1.40;;
14167;SDS011;7163;50.626;12.922;2023-07-29T15:16:02;1.67;;;1.40;;
14167;SDS011;7163;50.626;12.922;2023-07-29T15:21:03;1.60;;;1.50;;
14167;SDS011;7163;50.626;12.922;2023-07-29T15:26:03;1.40;;;1.30;;
14167;SDS011;7163;50.626;12.922;2023-07-29T15:31:05;1.40;;;1.30;;
14167;SDS011;7163;50.626;12.922;2023-07-29T15:36:05;2.15;;;1.30;;
14167;SDS011;7163;50.626;12.922;2023-07-29T15:41:06;1.70;;;1.50;;
14167;SDS011;7163;50.626;12.922;2023-07-29T15:46:06;1.65;;;1.55;;
14167;SDS011;7163;50.626;12.922;2023-07-29T15:51:08;1.63;;;1.52;;
14167;SDS011;7163;50.626;12.922;2023-07-29T15:56:08;2.35;;;1.58;;
14167;SDS011;7163;50.626;12.922;2023-07-29T16:01:09;1.77;;;1.67;;
14167;SDS011;7163;50.626;12.922;2023-07-29T16:06:10;2.60;;;1.70;;
14167;SDS011;7163;50.626;12.922;2023-07-29T16:11:10;2.50;;;1.80;;
14167;SDS011;7163;50.626;12.922;2023-07-29T16:16:11;1.67;;;1.58;;
14167;SDS011;7163;50.626;12.922;2023-07-29T16:21:11;1.88;;;1.50;;
14167;SDS011;7163;50.626;12.922;2023-07-29T16:26:12;4.10;;;1.60;;
14167;SDS011;7163;50.626;12.922;2023-07-29T16:31:12;3.20;;;2.03;;
14167;SDS011;7163;50.626;12.922;2023-07-29T16:36:13;2.22;;;1.92;;
14167;SDS011;7163;50.626;12.922;2023-07-29T16:41:14;3.28;;;1.60;;
14167;SDS011;7163;50.626;12.922;2023-07-29T16:46:14;6.50;;;2.28;;
14167;SDS011;7163;50.626;12.922;2023-07-29T16:51:14;1.60;;;1.50;;
14167;SDS011;7163;50.626;12.922;2023-07-29T16:56:15;1.90;;;1.70;;
14167;SDS011;7163;50.626;12.922;2023-07-29T17:01:15;2.47;;;1.80;;
14167;SDS011;7163;50.626;12.922;2023-07-29T17:06:16;1.70;;;1.60;;
14167;SDS011;7163;50.626;12.922;2023-07-29T17:11:16;2.27;;;1.50;;
14167;SDS011;7163;50.626;12.922;2023-07-29T17:16:17;1.47;;;1.37;;
14167;SDS011;7163;50.626;12.922;2023-07-29T17:21:17;1.50;;;1.40;;
14167;SDS011;7163;50.626;12.922;2023-07-29T17:26:18;2.23;;;1.40;;
14167;SDS011;7163;50.626;12.922;2023-07-29T17:31:18;1.30;;;1.20;;
14167;SDS011;7163;50.626;12.922;2023-07-29T17:36:19;2.00;;;1.60;;
14167;SDS011;7163;50.626;12.922;2023-07-29T17:41:19;1.73;;;1.58;;
14167;SDS011;7163;50.626;12.922;2023-07-29T17:46:20;4.53;;;1.67;;
14167;SDS011;7163;50.626;12.922;2023-07-29T17:51:20;2.90;;;1.77;;
14167;SDS011;7163;50.626;12.922;2023-07-29T17:56:21;1.45;;;1.30;;
14167;SDS011;7163;50.626;12.922;2023-07-29T18:01:21;1.58;;;1.45;;
14167;SDS011;7163;50.626;12.922;2023-07-29T18:06:22;1.90;;;1.45;;
14167;SDS011;7163;50.626;12.922;2023-07-29T18:11:23;2.08;;;1.60;;
14167;SDS011;7163;50.626;12.922;2023-07-29T18:16:23;3.35;;;1.50;;
14167;SDS011;7163;50.626;12.922;2023-07-29T18:21:24;1.98;;;1.70;;
14167;SDS011;7163;50.626;12.922;2023-07-29T18:26:24;1.70;;;1.60;;
14167;SDS011;7163;50.626;12.922;2023-07-29T18:31:24;1.87;;;1.73;;
14167;SDS011;7163;50.626;12.922;2023-07-29T18:36:25;2.03;;;1.60;;
14167;SDS011;7163;50.626;12.922;2023-07-29T18:41:28;1.67;;;1.57;;
14167;SDS011;7163;50.626;12.922;2023-07-29T18:46:30;1.70;;;1.60;;
14167;SDS011;7163;50.626;12.922;2023-07-29T18:51:31;2.10;;;1.90;;
14167;SDS011;7163;50.626;12.922;2023-07-29T18:56:32;4.97;;;1.70;;
14167;SDS011;7163;50.626;12.922;2023-07-29T19:01:33;2.60;;;1.93;;
14167;SDS011;7163;50.626;12.922;2023-07-29T19:06:33;2.20;;;1.77;;
14167;SDS011;7163;50.626;12.922;2023-07-29T19:11:34;1.80;;;1.70;;
14167;SDS011;7163;50.626;12.922;2023-07-29T19:16:34;3.73;;;2.23;;
14167;SDS011;7163;50.626;12.922;2023-07-29T19:21:35;3.60;;;2.43;;
14167;SDS011;7163;50.626;12.922;2023-07-29T19:26:36;3.03;;;2.33;;
14167;SDS011;7163;50.626;12.922;2023-07-29T19:31:36;2.80;;;2.30;;
14167;SDS011;7163;50.626;12.922;2023-07-29T19:36:37;3.60;;;1.93;;
14167;SDS011;7163;50.626;12.922;2023-07-29T19:41:37;3.27;;;2.60;;
14167;SDS011;7163;50.626;12.922;2023-07-29T19:46:37;2.50;;;2.30;;
14167;SDS011;7163;50.626;12.922;2023-07-29T19:51:38;3.87;;;2.70;;
14167;SDS011;7163;50.626;12.922;2023-07-29T19:56:38;3.67;;;3.20;;
14167;SDS011;7163;50.626;12.922;2023-07-29T20:01:38;4.10;;;2.90;;
14167;SDS011;7163;50.626;12.922;2023-07-29T20:06:39;4.63;;;3.10;;
14167;SDS011;7163;50.626;12.922;2023-07-29T20:11:40;4.00;;;2.97;;
14167;SDS011;7163;50.626;12.922;2023-07-29T20:16:40;3.90;;;3.10;;
14167;SDS011;7163;50.626;12.922;2023-07-29T20:21:41;4.73;;;3.37;;
14167;SDS011;7163;50.626;12.922;2023-07-29T20:26:41;6.77;;;3.37;;
14167;SDS011;7163;50.626;12.922;2023-07-29T20:31:42;4.73;;;3.40;;
14167;SDS011;7163;50.626;12.922;2023-07-29T20:36:42;5.13;;;3.33;;
14167;SDS011;7163;50.626;12.922;2023-07-29T20:41:43;4.00;;;3.20;;
14167;SDS011;7163;50.626;12.922;2023-07-29T20:46:43;4.27;;;3.40;;
14167;SDS011;7163;50.626;12.922;2023-07-29T20:51:44;5.60;;;3.50;;
14167;SDS011;7163;50.626;12.922;2023-07-29T20:56:44;8.20;;;3.77;;
14167;SDS011;7163;50.626;12.922;2023-07-29T21:01:44;4.93;;;3.80;;
14167;SDS011;7163;50.626;12.922;2023-07-29T21:06:45;5.93;;;3.70;;
14167;SDS011;7163;50.626;12.922;2023-07-29T21:11:45;6.67;;;3.57;;
14167;SDS011;7163;50.626;12.922;2023-07-29T21:16:46;5.00;;;3.83;;
14167;SDS011;7163;50.626;12.922;2023-07-29T21:21:46;5.63;;;4.30;;
14167;SDS011;7163;50.626;12.922;2023-07-29T21:26:47;5.30;;;4.47;;
14167;SDS011;7163;50.626;12.922;2023-07-29T21:31:47;7.63;;;4.50;;
14167;SDS011;7163;50.626;12.922;2023-07-29T21:36:47;8.70;;;5.03;;
14167;SDS011;7163;50.626;12.922;2023-07-29T21:41:48;8.53;;;5.80;;
14167;SDS011;7163;50.626;12.922;2023-07-29T21:46:48;9.13;;;6.57;;
14167;SDS011;7163;50.626;12.922;2023-07-29T21:51:49;11.77;;;7.47;;
14167;SDS011;7163;50.626;12.922;2023-07-29T21:56:49;8.07;;;5.50;;
14167;SDS011;7163;50.626;12.922;2023-07-29T22:01:50;8.83;;;4.60;;
14167;SDS011;7163;50.626;12.922;2023-07-29T22:06:50;6.07;;;4.10;;
14167;SDS011;7163;50.626;12.922;2023-07-29T22:11:51;7.03;;;5.13;;
14167;SDS011;7163;50.626;12.922;2023-07-29T22:16:51;6.33;;;4.80;;
14167;SDS011;7163;50.626;12.922;2023-07-29T22:21:52;8.27;;;5.20;;
14167;SDS011;7163;50.626;12.922;2023-07-29T22:26:52;7.93;;;5.13;;
14167;SDS011;7163;50.626;12.922;2023-07-29T22:31:52;6.83;;;5.00;;
14167;SDS011;7163;50.626;12.922;2023-07-29T22:36:53;6.83;;;4.20;;
14167;SDS011;7163;50.626;12.922;2023-07-29T22:41:53;7.93;;;5.40;;
14167;SDS011;7163;50.626;12.922;2023-07-29T22:46:53;5.27;;;4.37;;
14167;SDS011;7163;50.626;12.922;2023-07-29T22:51:54;8.87;;;5.40;;
14167;SDS011;7163;50.626;12.922;2023-07-29T22:56:54;6.57;;;4.57;;
14167;SDS011;7163;50.626;12.922;2023-07-29T23:01:55;10.30;;;4.20;;
14167;SDS011;7163;50.626;12.922;2023-07-29T23:06:57;4.80;;;3.97;;
14167;SDS011;7163;50.626;12.922;2023-07-29T23:11:58;5.33;;;3.80;;
14167;SDS011;7163;50.626;12.922;2023-07-29T23:16:58;7.00;;;4.27;;
14167;SDS011;7163;50.626;12.922;2023-07-29T23:21:59;8.03;;;5.17;;
14167;SDS011;7163;50.626;12.922;2023-07-29T23:27:00;5.27;;;4.00;;
14167;SDS011;7163;50.626;12.922;2023-07-29T23:32:01;7.27;;;4.80;;
14167;SDS011;7163;50.626;12.922;2023-07-29T23:37:02;6.70;;;4.90;;
14167;SDS011;7163;50.626;12.922;2023-07-29T23:42:03;6.57;;;4.57;;
14167;SDS011;7163;50.626;12.922;2023-07-29T23:47:04;7.83;;;3.80;;
14167;SDS011;7163;50.626;12.922;2023-07-29T23:52:05;4.67;;;3.57;;
14167;SDS011;7163;50.626;12.922;2023-07-29T23:57:06;6.30;;;4.67;;
